Time;durP1;ratioP1;P1;durP2;ratioP2;P2;SDS_P1;SDS_P2;PMS_P1;PMS_P2;Temp;Humidity;BMP_temperature;BMP_pressure;BME280_temperature;BME280_humidity;BME280_pressure;Samples;Min_cycle;Max_cycle;Signal;HPM_P1;HPM_P2
2022/04/19 00:02:01;;;;;;;11.43;7.43;;;;;;;-145.18;100.00;60484.78;5014631;28;20071;-69
2022/04/19 00:04:27;;;;;;;12.63;7.13;;;;;;;-145.18;100.00;60484.78;5009264;28;20037;-69
2022/04/19 00:06:52;;;;;;;11.00;7.00;;;;;;;-145.18;100.00;60484.78;5009426;28;20038;-69
2022/04/19 00:09:18;;;;;;;11.23;7.13;;;;;;;-145.18;100.00;60484.78;5016211;28;20041;-69
2022/04/19 00:11:43;;;;;;;13.03;7.23;;;;;;;-145.18;100.00;60484.78;5015309;28;20068;-69
2022/04/19 00:14:09;;;;;;;10.23;6.20;;;;;;;-145.18;100.00;60484.78;5011984;28;20061;-69
2022/04/19 00:16:37;;;;;;;8.90;5.73;;;;;;;-145.18;100.00;60484.78;5003680;28;20025;-70
2022/04/19 00:19:03;;;;;;;10.40;5.63;;;;;;;-145.18;100.00;60484.78;4998713;28;21900;-70
2022/04/19 00:21:28;;;;;;;8.57;5.63;;;;;;;-145.18;100.00;60484.78;4995699;28;20095;-70
2022/04/19 00:23:53;;;;;;;10.77;5.47;;;;;;;-145.18;100.00;60484.78;4998222;28;20025;-70
2022/04/19 00:26:19;;;;;;;9.60;5.63;;;;;;;-145.18;100.00;60484.78;4998132;28;20524;-70
2022/04/19 00:28:44;;;;;;;9.97;5.60;;;;;;;-145.18;100.00;60484.78;4996309;28;21919;-70
2022/04/19 00:31:10;;;;;;;9.43;5.70;;;;;;;-145.18;100.00;60484.78;4999836;28;20487;-70
2022/04/19 00:33:38;;;;;;;10.20;5.50;;;;;;;-145.18;100.00;60484.78;4990812;28;20037;-70
2022/04/19 00:36:05;;;;;;;12.07;5.20;;;;;;;-145.18;100.00;60484.78;5008046;28;20026;-70
2022/04/19 00:38:30;;;;;;;9.37;5.77;;;;;;;-145.18;100.00;60484.78;5006931;28;20032;-70
2022/04/19 00:40:56;;;;;;;9.43;5.47;;;;;;;-145.18;100.00;60484.78;5012899;28;20041;-70
2022/04/19 00:43:21;;;;;;;11.00;5.53;;;;;;;-145.18;100.00;60484.78;5018676;28;20030;-70
2022/04/19 00:45:47;;;;;;;9.87;5.47;;;;;;;-145.18;100.00;60484.78;5021515;28;20049;-70
2022/04/19 00:48:12;;;;;;;9.57;5.30;;;;;;;-145.18;100.00;60484.78;5010686;28;20117;-70
2022/04/19 00:50:38;;;;;;;9.37;5.20;;;;;;;-145.18;100.00;60484.78;5015208;28;20064;-70
2022/04/19 00:53:04;;;;;;;8.83;5.23;;;;;;;-145.18;100.00;60484.78;5011079;28;20698;-70
2022/04/19 00:55:32;;;;;;;8.27;5.17;;;;;;;-145.18;100.00;60484.78;5012904;28;20044;-70
2022/04/19 00:57:57;;;;;;;11.47;5.43;;;;;;;-145.18;100.00;60484.78;5015237;28;20535;-70
2022/04/19 01:00:23;;;;;;;9.50;5.73;;;;;;;-145.18;100.00;60484.78;5015662;28;20029;-69
2022/04/19 01:02:48;;;;;;;17.67;4.80;;;;;;;-145.18;100.00;60484.78;5014476;28;20033;-69
2022/04/19 01:05:14;;;;;;;9.87;5.50;;;;;;;-145.18;100.00;60484.78;5017292;28;20025;-69
2022/04/19 01:07:42;;;;;;;8.77;5.27;;;;;;;-145.18;100.00;60484.78;5014006;28;20037;-69
2022/04/19 01:10:08;;;;;;;9.57;5.70;;;;;;;-145.18;100.00;60484.78;5017691;28;20579;-69
2022/04/19 01:15:18;;;;;;;8.87;5.10;;;;;;;-145.18;100.00;60484.78;5020842;28;20068;-69
2022/04/19 01:17:44;;;;;;;11.13;5.90;;;;;;;-145.18;100.00;60484.78;5029087;28;20072;-69
2022/04/19 01:20:12;;;;;;;9.17;5.20;;;;;;;-145.18;100.00;60484.78;5019990;28;20053;-69
2022/04/19 01:22:39;;;;;;;9.97;5.77;;;;;;;-145.18;100.00;60484.78;5032154;28;20036;-69
2022/04/19 01:25:07;;;;;;;8.60;5.30;;;;;;;-145.18;100.00;60484.78;5024049;28;20124;-69
2022/04/19 01:27:33;;;;;;;11.27;6.17;;;;;;;-145.18;100.00;60484.78;5032190;28;20030;-69
2022/04/19 01:30:19;;;;;;;9.83;5.47;;;;;;;-145.18;100.00;60484.78;5024438;28;20037;-69
2022/04/19 01:32:44;;;;;;;10.93;6.07;;;;;;;-145.18;100.00;60484.78;4981166;28;20125;-69
2022/04/19 01:35:12;;;;;;;14.43;6.30;;;;;;;-145.18;100.00;60484.78;4983713;28;20157;-69
2022/04/19 01:37:39;;;;;;;10.13;5.50;;;;;;;-145.18;100.00;60484.78;4989886;28;20038;-69
2022/04/19 01:40:18;;;;;;;12.17;6.00;;;;;;;-145.18;100.00;60484.78;4972592;28;20022;-69
2022/04/19 01:42:52;;;;;;;12.97;5.83;;;;;;;-145.18;100.00;60484.78;4989446;28;20687;-69
2022/04/19 01:45:20;;;;;;;12.40;6.23;;;;;;;-145.18;100.00;60484.78;4984904;28;20458;-69
2022/04/19 01:47:46;;;;;;;11.10;6.30;;;;;;;-145.18;100.00;60484.78;4990419;28;20117;-69
2022/04/19 01:50:15;;;;;;;13.23;6.30;;;;;;;-145.18;100.00;60484.78;4987460;28;20570;-69
2022/04/19 01:52:41;;;;;;;14.47;6.13;;;;;;;-145.18;100.00;60484.78;4987470;28;20111;-69
2022/04/19 01:55:09;;;;;;;10.23;6.03;;;;;;;-145.18;100.00;60484.78;4983481;28;20030;-69
2022/04/19 01:57:36;;;;;;;12.10;6.17;;;;;;;-145.18;100.00;60484.78;4989985;28;20069;-69
2022/04/19 02:00:05;;;;;;;11.73;6.70;;;;;;;-145.18;100.00;60484.78;4981669;28;20593;-69
2022/04/19 02:02:31;;;;;;;12.77;6.80;;;;;;;-145.18;100.00;60484.78;4987956;28;20034;-69
2022/04/19 02:04:56;;;;;;;13.93;6.70;;;;;;;-145.18;100.00;60484.78;5029027;28;20029;-69
2022/04/19 02:07:22;;;;;;;12.37;7.43;;;;;;;-145.18;100.00;60484.78;5031398;28;20025;-69
2022/04/19 02:09:47;;;;;;;12.90;6.63;;;;;;;-145.18;100.00;60484.78;5030595;28;20116;-69
2022/04/19 02:12:13;;;;;;;15.37;6.77;;;;;;;-145.18;100.00;60484.78;5028971;28;20029;-69
2022/04/19 02:14:41;;;;;;;16.77;6.40;;;;;;;-145.18;100.00;60484.78;5025821;28;20437;-69
2022/04/19 02:17:09;;;;;;;15.33;7.23;;;;;;;-145.18;100.00;60484.78;5030048;28;20032;-69
2022/04/19 02:19:38;;;;;;;13.30;7.20;;;;;;;-145.18;100.00;60484.78;5027775;28;20108;-69
2022/04/19 02:22:09;;;;;;;10.93;6.60;;;;;;;-145.18;100.00;60484.78;5030786;28;20498;-69
2022/04/19 02:24:35;;;;;;;13.33;6.53;;;;;;;-145.18;100.00;60484.78;5030229;28;20582;-69
2022/04/19 02:27:00;;;;;;;13.93;7.20;;;;;;;-145.18;100.00;60484.78;5031146;28;20541;-69
2022/04/19 02:29:26;;;;;;;11.73;6.93;;;;;;;-145.18;100.00;60484.78;5008828;28;20060;-69
2022/04/19 02:31:52;;;;;;;13.57;7.13;;;;;;;-145.18;100.00;60484.78;5028556;28;20049;-69
2022/04/19 02:34:18;;;;;;;13.97;7.40;;;;;;;-145.18;100.00;60484.78;5027453;28;20025;-69
2022/04/19 02:36:44;;;;;;;14.47;7.13;;;;;;;-145.18;100.00;60484.78;5027685;28;20101;-69
2022/04/19 02:39:10;;;;;;;11.90;6.73;;;;;;;-145.18;100.00;60484.78;5025692;28;20768;-69
2022/04/19 02:41:36;;;;;;;12.07;6.97;;;;;;;-145.18;100.00;60484.78;5031251;28;20032;-69
2022/04/19 02:44:02;;;;;;;14.57;7.23;;;;;;;-145.18;100.00;60484.78;5030576;28;20479;-69
2022/04/19 02:46:29;;;;;;;10.77;6.43;;;;;;;-145.18;100.00;60484.78;5029930;28;20153;-69
2022/04/19 02:48:55;;;;;;;13.83;7.13;;;;;;;-145.18;100.00;60484.78;5030471;28;20103;-69
2022/04/19 02:51:21;;;;;;;14.03;6.97;;;;;;;-145.18;100.00;60484.78;5013776;28;20381;-69
2022/04/19 02:53:46;;;;;;;13.23;7.30;;;;;;;-145.18;100.00;60484.78;5028997;28;20040;-69
2022/04/19 02:56:12;;;;;;;15.20;7.57;;;;;;;-145.18;100.00;60484.78;5028084;28;20535;-69
2022/04/19 02:58:38;;;;;;;14.73;7.60;;;;;;;-145.18;100.00;60484.78;5022486;28;21827;-69
2022/04/19 03:01:03;;;;;;;15.20;7.27;;;;;;;-145.18;100.00;60484.78;5016847;28;20021;-69
2022/04/19 03:03:29;;;;;;;15.13;7.67;;;;;;;-145.18;100.00;60484.78;5025953;28;20040;-69
2022/04/19 03:05:57;;;;;;;17.90;7.73;;;;;;;-145.18;100.00;60484.78;5020533;28;20028;-69
2022/04/19 03:08:24;;;;;;;15.33;7.57;;;;;;;-145.18;100.00;60484.78;5032491;28;20052;-69
2022/04/19 03:10:50;;;;;;;16.47;7.13;;;;;;;-145.18;100.00;60484.78;5028955;28;20041;-69
2022/04/19 03:13:16;;;;;;;16.77;7.60;;;;;;;-145.18;100.00;60484.78;5029233;28;20029;-69
2022/04/19 03:15:42;;;;;;;16.73;7.57;;;;;;;-145.18;100.00;60484.78;5028428;28;20025;-69
2022/04/19 03:18:07;;;;;;;14.50;7.60;;;;;;;-145.18;100.00;60484.78;5031290;28;20036;-69
2022/04/19 03:20:33;;;;;;;14.80;8.00;;;;;;;-145.18;100.00;60484.78;5026178;28;20511;-69
2022/04/19 03:28:26;;;;;;;25.53;8.13;;;;;;;-145.18;100.00;60484.78;5030832;28;20039;-69
2022/04/19 03:30:51;;;;;;;17.03;8.13;;;;;;;-145.18;100.00;60484.78;5027150;28;20013;-69
2022/04/19 03:33:17;;;;;;;14.63;7.83;;;;;;;-145.18;100.00;60484.78;5026592;28;20634;-69
2022/04/19 03:35:42;;;;;;;16.27;7.97;;;;;;;-145.18;100.00;60484.78;5028730;28;20080;-69
2022/04/19 03:38:08;;;;;;;18.03;7.73;;;;;;;-145.18;100.00;60484.78;5030260;28;20068;-69
2022/04/19 03:40:34;;;;;;;21.53;8.60;;;;;;;-145.18;100.00;60484.78;5023680;28;20108;-69
2022/04/19 03:43:00;;;;;;;16.40;7.93;;;;;;;-145.18;100.00;60484.78;5027028;28;20071;-69
2022/04/19 03:45:25;;;;;;;16.97;7.90;;;;;;;-145.18;100.00;60484.78;5026498;28;20478;-69
2022/04/19 03:47:51;;;;;;;14.47;8.27;;;;;;;-145.18;100.00;60484.78;5008706;28;20029;-69
2022/04/19 03:50:16;;;;;;;18.47;7.90;;;;;;;-145.18;100.00;60484.78;5018845;28;20033;-69
2022/04/19 03:52:44;;;;;;;13.57;8.00;;;;;;;-145.18;100.00;60484.78;5025179;28;20017;-69
2022/04/19 03:55:09;;;;;;;16.93;8.10;;;;;;;-145.18;100.00;60484.78;4999576;28;20485;-69
2022/04/19 03:57:34;;;;;;;17.07;8.47;;;;;;;-145.18;100.00;60484.78;5023025;28;20029;-69
2022/04/19 04:00:00;;;;;;;15.67;7.93;;;;;;;-145.18;100.00;60484.78;5027224;28;20026;-69
2022/04/19 04:02:26;;;;;;;17.53;8.13;;;;;;;-145.18;100.00;60484.78;5027608;28;20025;-69
2022/04/19 04:04:51;;;;;;;16.10;8.10;;;;;;;-145.18;100.00;60484.78;5019782;28;20113;-69
2022/04/19 04:07:17;;;;;;;21.37;8.30;;;;;;;-145.18;100.00;60484.78;5018283;28;20113;-69
2022/04/19 04:09:42;;;;;;;16.60;8.60;;;;;;;-145.18;100.00;60484.78;5027172;28;20053;-69
2022/04/19 04:12:10;;;;;;;17.17;8.90;;;;;;;-145.18;100.00;60484.78;5024494;28;20029;-69
2022/04/19 04:14:36;;;;;;;17.20;8.87;;;;;;;-145.18;100.00;60484.78;5025753;28;20056;-69
2022/04/19 04:17:02;;;;;;;24.07;9.37;;;;;;;-145.18;100.00;60484.78;5020050;28;20041;-69
2022/04/19 04:19:27;;;;;;;17.73;9.43;;;;;;;-145.18;100.00;60484.78;5024646;28;20892;-69
2022/04/19 04:21:53;;;;;;;21.70;10.03;;;;;;;-145.18;100.00;60484.78;5028371;28;20044;-69
2022/04/19 04:24:19;;;;;;;18.33;9.30;;;;;;;-145.18;100.00;60484.78;5026939;28;20076;-69
2022/04/19 04:26:44;;;;;;;20.10;9.17;;;;;;;-145.18;100.00;60484.78;5028682;28;20484;-69
2022/04/19 04:29:10;;;;;;;19.47;9.70;;;;;;;-145.18;100.00;60484.78;5026475;28;20075;-69
2022/04/19 04:31:35;;;;;;;19.60;9.43;;;;;;;-145.18;100.00;60484.78;5026138;28;20060;-69
2022/04/19 04:34:00;;;;;;;18.43;9.40;;;;;;;-145.18;100.00;60484.78;5023383;28;20104;-69
2022/04/19 04:36:26;;;;;;;17.27;10.03;;;;;;;-145.18;100.00;60484.78;5024892;28;20030;-69
2022/04/19 04:38:51;;;;;;;24.33;10.27;;;;;;;-145.18;100.00;60484.78;5027585;28;20038;-69
2022/04/19 04:41:17;;;;;;;21.70;11.33;;;;;;;-145.18;100.00;60484.78;5032808;28;20036;-68
2022/04/19 04:43:43;;;;;;;24.23;11.20;;;;;;;-145.18;100.00;60484.78;5026953;28;20025;-69
2022/04/19 04:51:36;;;;;;;16.00;8.13;;;;;;;-145.18;100.00;60484.78;5019836;28;20555;-69
2022/04/19 04:54:02;;;;;;;17.37;8.63;;;;;;;-145.18;100.00;60484.78;5027151;28;20026;-71
2022/04/19 04:56:27;;;;;;;14.93;7.83;;;;;;;-145.18;100.00;60484.78;5020248;28;20029;-69
2022/04/19 04:58:52;;;;;;;14.70;7.90;;;;;;;-145.18;100.00;60484.78;5032448;28;20029;-68
2022/04/19 05:01:18;;;;;;;14.90;8.03;;;;;;;-145.18;100.00;60484.78;5027879;28;20034;-69
2022/04/19 05:03:44;;;;;;;20.33;9.00;;;;;;;-145.18;100.00;60484.78;5028574;28;20037;-69
2022/04/19 05:06:09;;;;;;;12.77;7.67;;;;;;;-145.18;100.00;60484.78;5027658;28;20051;-69
2022/04/19 05:08:34;;;;;;;15.93;8.63;;;;;;;-145.18;100.00;60484.78;5030120;28;20585;-69
2022/04/19 05:11:00;;;;;;;13.83;8.60;;;;;;;-145.18;100.00;60484.78;5031811;28;20374;-69
2022/04/19 05:13:25;;;;;;;17.63;9.10;;;;;;;-145.18;100.00;60484.78;5031444;28;20029;-69
2022/04/19 05:15:51;;;;;;;14.93;7.57;;;;;;;-145.18;100.00;60484.78;5024375;28;20041;-69
2022/04/19 05:18:16;;;;;;;15.50;7.60;;;;;;;-145.18;100.00;60484.78;5032405;28;20472;-69
2022/04/19 05:20:42;;;;;;;14.77;6.87;;;;;;;-145.18;100.00;60484.78;5030667;28;20396;-69
2022/04/19 05:23:07;;;;;;;13.37;7.30;;;;;;;-145.18;100.00;60484.78;5041006;28;20536;-69
2022/04/19 05:25:33;;;;;;;14.87;8.17;;;;;;;-145.18;100.00;60484.78;5029437;28;20108;-69
2022/04/19 05:27:58;;;;;;;17.00;8.70;;;;;;;-145.18;100.00;60484.78;5030068;28;20051;-69
2022/04/19 05:30:24;;;;;;;15.97;8.20;;;;;;;-145.18;100.00;60484.78;5009532;28;20112;-69
2022/04/19 05:32:49;;;;;;;12.03;6.60;;;;;;;-145.18;100.00;60484.78;5028747;28;20474;-70
2022/04/19 05:35:15;;;;;;;12.63;5.97;;;;;;;-145.18;100.00;60484.78;5032259;28;20033;-69
2022/04/19 05:37:40;;;;;;;11.03;6.20;;;;;;;-145.18;100.00;60484.78;5028505;28;20061;-69
2022/04/19 05:40:06;;;;;;;9.77;5.60;;;;;;;-145.18;100.00;60484.78;5028677;28;20060;-69
2022/04/19 05:42:32;;;;;;;14.13;8.37;;;;;;;-145.18;100.00;60484.78;5019480;28;20028;-70
2022/04/19 05:44:57;;;;;;;13.63;8.03;;;;;;;-145.18;100.00;60484.78;5016622;28;20040;-69
2022/04/19 05:47:22;;;;;;;11.87;5.60;;;;;;;-145.18;100.00;60484.78;5013308;28;20049;-69
2022/04/19 05:49:48;;;;;;;12.87;6.57;;;;;;;-145.18;100.00;60484.78;5018020;28;20030;-69
2022/04/19 05:52:13;;;;;;;11.57;5.83;;;;;;;-145.18;100.00;60484.78;5023860;28;20029;-69
2022/04/19 05:54:38;;;;;;;11.60;5.50;;;;;;;-145.18;100.00;60484.78;5027816;28;20104;-69
2022/04/19 05:57:04;;;;;;;10.20;5.40;;;;;;;-145.18;100.00;60484.78;5029372;28;20021;-69
2022/04/19 05:59:29;;;;;;;9.63;4.83;;;;;;;-145.18;100.00;60484.78;5019605;28;20025;-69
2022/04/19 06:04:53;;;;;;;11.10;5.10;;;;;;;-145.18;100.00;60484.78;5016551;28;20111;-69
2022/04/19 06:07:20;;;;;;;9.57;5.40;;;;;;;-145.18;100.00;60484.78;5021591;28;20037;-70
2022/04/19 06:09:46;;;;;;;10.37;4.90;;;;;;;-145.18;100.00;60484.78;5012369;28;20047;-70
2022/04/19 06:12:11;;;;;;;15.30;5.07;;;;;;;-145.18;100.00;60484.78;5005500;28;20033;-70
2022/04/19 06:14:37;;;;;;;10.30;4.87;;;;;;;-145.18;100.00;60484.78;5025635;28;20026;-69
2022/04/19 06:17:03;;;;;;;7.83;4.63;;;;;;;-145.18;100.00;60484.78;5031530;28;20079;-69
2022/04/19 06:19:30;;;;;;;7.37;4.10;;;;;;;-145.18;100.00;60484.78;5015529;28;20708;-69
2022/04/19 06:21:56;;;;;;;8.97;4.40;;;;;;;-145.18;100.00;60484.78;5017176;28;20021;-69
2022/04/19 06:24:23;;;;;;;8.40;4.60;;;;;;;-145.18;100.00;60484.78;5025261;28;20061;-68
2022/04/19 06:26:48;;;;;;;6.97;4.57;;;;;;;-145.18;100.00;60484.78;5014964;28;20087;-69
2022/04/19 06:29:14;;;;;;;10.07;4.90;;;;;;;-145.18;100.00;60484.78;5026995;28;20030;-69
2022/04/19 06:31:43;;;;;;;8.13;4.40;;;;;;;-145.18;100.00;60484.78;5031259;28;20057;-69
2022/04/19 06:34:09;;;;;;;8.03;4.57;;;;;;;-145.18;100.00;60484.78;5024369;28;20044;-69
2022/04/19 06:36:35;;;;;;;8.20;4.30;;;;;;;-145.18;100.00;60484.78;5012812;28;20673;-69
2022/04/19 06:39:00;;;;;;;6.87;3.77;;;;;;;-145.18;100.00;60484.78;5031286;28;20039;-69
2022/04/19 06:41:26;;;;;;;9.80;4.20;;;;;;;-145.18;100.00;60484.78;5032428;28;20096;-71
2022/04/19 06:43:52;;;;;;;6.57;3.87;;;;;;;-145.18;100.00;60484.78;4998868;28;20064;-69
2022/04/19 06:46:18;;;;;;;7.50;3.80;;;;;;;-145.18;100.00;60484.78;5015674;28;20030;-69
2022/04/19 06:48:43;;;;;;;6.88;4.30;;;;;;;-145.18;100.00;60484.78;5031335;28;20079;-69
2022/04/19 06:51:09;;;;;;;6.40;4.03;;;;;;;-145.18;100.00;60484.78;5031929;28;20040;-70
2022/04/19 06:53:36;;;;;;;9.30;4.28;;;;;;;-145.18;100.00;60484.78;5031735;28;20108;-70
2022/04/19 06:56:06;;;;;;;5.95;3.40;;;;;;;-145.18;100.00;60484.78;5031998;28;20541;-69
2022/04/19 06:58:32;;;;;;;5.75;3.30;;;;;;;-145.18;100.00;60484.78;5028822;28;20017;-69
2022/04/19 07:00:57;;;;;;;6.93;3.28;;;;;;;-145.18;100.00;60484.78;5020207;28;20035;-69
2022/04/19 07:03:26;;;;;;;5.97;3.25;;;;;;;-145.18;100.00;60484.78;5021168;28;20025;-70
2022/04/19 07:05:51;;;;;;;7.15;3.30;;;;;;;-145.18;100.00;60484.78;5021950;28;20025;-70
2022/04/19 07:08:16;;;;;;;6.40;3.10;;;;;;;-145.18;100.00;60484.78;5027115;28;20022;-70
2022/04/19 07:10:42;;;;;;;7.18;3.20;;;;;;;-145.18;100.00;60484.78;5031905;28;20529;-69
2022/04/19 07:13:09;;;;;;;8.30;3.17;;;;;;;-145.18;100.00;60484.78;5014063;28;20029;-70
2022/04/19 07:15:35;;;;;;;4.90;3.08;;;;;;;-145.18;100.00;60484.78;5024228;28;20026;-70
2022/04/19 07:18:00;;;;;;;5.93;3.20;;;;;;;-145.18;100.00;60484.78;5031058;28;20025;-69
2022/04/19 07:28:38;;;;;;;5.68;2.60;;;;;;;-145.18;100.00;60484.78;5030023;28;20087;-69
2022/04/19 07:31:04;;;;;;;5.35;2.45;;;;;;;-145.18;100.00;60484.78;5029910;28;20477;-69
2022/04/19 07:33:30;;;;;;;4.60;2.17;;;;;;;-145.18;100.00;60484.78;5032072;28;20484;-69
2022/04/19 07:35:56;;;;;;;4.38;2.40;;;;;;;-145.18;100.00;60484.78;5022038;28;20052;-69
2022/04/19 07:38:21;;;;;;;5.53;2.20;;;;;;;-145.18;100.00;60484.78;5029508;28;20025;-69
2022/04/19 07:40:47;;;;;;;3.92;2.17;;;;;;;-145.18;100.00;60484.78;5033734;28;20480;-70
2022/04/19 07:43:12;;;;;;;4.15;1.85;;;;;;;-145.18;100.00;60484.78;5032137;28;20095;-70
2022/04/19 07:45:38;;;;;;;3.53;2.03;;;;;;;-145.18;100.00;60484.78;5021898;28;20040;-69
2022/04/19 07:48:05;;;;;;;3.83;1.70;;;;;;;-145.18;100.00;60484.78;5030862;28;20100;-70
2022/04/19 07:50:31;;;;;;;4.50;1.77;;;;;;;-145.18;100.00;60484.78;5000019;28;20129;-69
2022/04/19 07:52:57;;;;;;;3.53;1.70;;;;;;;-145.18;100.00;60484.78;5035624;28;20029;-70
2022/04/19 07:55:23;;;;;;;3.78;1.73;;;;;;;-145.18;100.00;60484.78;5029398;28;20098;-69
2022/04/19 07:57:49;;;;;;;3.70;1.80;;;;;;;-145.18;100.00;60484.78;5028979;28;20068;-69
2022/04/19 08:00:15;;;;;;;3.80;1.85;;;;;;;-145.18;100.00;60484.78;5025703;28;20501;-69
2022/04/19 08:02:41;;;;;;;4.05;2.00;;;;;;;-145.18;100.00;60484.78;5029450;28;20030;-69
2022/04/19 08:05:07;;;;;;;5.05;1.80;;;;;;;-145.18;100.00;60484.78;5029789;28;20029;-69
2022/04/19 08:07:33;;;;;;;4.97;1.70;;;;;;;-145.18;100.00;60484.78;5023873;28;20401;-69
2022/04/19 08:09:58;;;;;;;4.78;1.60;;;;;;;-145.18;100.00;60484.78;5019821;28;20022;-69
2022/04/19 08:12:24;;;;;;;6.15;1.77;;;;;;;-145.18;100.00;60484.78;5031235;28;20040;-69
2022/04/19 08:14:50;;;;;;;2.65;1.30;;;;;;;-145.18;100.00;60484.78;5023924;28;20029;-69
2022/04/19 08:17:16;;;;;;;3.00;1.20;;;;;;;-145.18;100.00;60484.78;5029528;28;20021;-70
2022/04/19 08:19:41;;;;;;;3.47;1.40;;;;;;;-145.18;100.00;60484.78;5031456;28;20482;-69
2022/04/19 08:22:06;;;;;;;4.55;1.70;;;;;;;-145.18;100.00;60484.78;5027850;28;20485;-69
2022/04/19 08:24:32;;;;;;;3.60;1.60;;;;;;;-145.18;100.00;60484.78;5028377;28;20025;-69
2022/04/19 08:26:57;;;;;;;6.50;1.85;;;;;;;-145.18;100.00;60484.78;5028264;28;20018;-69
2022/04/19 08:29:22;;;;;;;3.10;1.63;;;;;;;-145.18;100.00;60484.78;5027708;28;20025;-69
2022/04/19 08:31:48;;;;;;;5.00;1.83;;;;;;;-145.18;100.00;60484.78;5028719;28;20017;-70
2022/04/19 08:34:14;;;;;;;3.42;1.63;;;;;;;-145.18;100.00;60484.78;5027967;28;20025;-69
2022/04/19 08:36:40;;;;;;;3.50;1.38;;;;;;;-145.18;100.00;60484.78;5029783;28;20585;-69
2022/04/19 08:39:05;;;;;;;3.05;1.30;;;;;;;-145.18;100.00;60484.78;5025218;28;20037;-69
2022/04/19 08:41:31;;;;;;;4.43;1.30;;;;;;;-145.18;100.00;60484.78;5022764;28;20044;-69
2022/04/19 08:43:57;;;;;;;2.50;1.40;;;;;;;-145.18;100.00;60484.78;5025094;28;20029;-69
2022/04/19 08:46:25;;;;;;;3.08;1.20;;;;;;;-145.18;100.00;60484.78;4999476;28;20037;-69
2022/04/19 08:48:51;;;;;;;4.43;1.17;;;;;;;-145.18;100.00;60484.78;5027155;28;20165;-69
2022/04/19 08:51:20;;;;;;;1.63;0.82;;;;;;;-145.18;100.00;60484.78;5028638;28;20056;-69
2022/04/19 08:59:14;;;;;;;3.03;1.38;;;;;;;-145.18;100.00;60484.78;5038505;28;20512;-69
2022/04/19 09:01:41;;;;;;;4.00;1.30;;;;;;;-145.18;100.00;60484.78;5034831;28;20026;-69
2022/04/19 09:04:06;;;;;;;3.75;1.30;;;;;;;-145.18;100.00;60484.78;5022644;28;20025;-69
2022/04/19 09:06:53;;;;;;;4.97;1.17;;;;;;;-145.18;100.00;60484.78;5029416;28;20751;-69
2022/04/19 09:09:26;;;;;;;2.72;1.30;;;;;;;-145.18;100.00;60484.78;5011374;28;20018;-69
2022/04/19 09:11:54;;;;;;;4.13;1.60;;;;;;;-145.18;100.00;60484.78;5030032;28;20025;-69
2022/04/19 09:14:21;;;;;;;4.13;1.52;;;;;;;-145.18;100.00;60484.78;5033926;28;20095;-69
2022/04/19 09:17:00;;;;;;;4.72;1.33;;;;;;;-145.18;100.00;60484.78;5031808;28;20470;-69
2022/04/19 09:19:29;;;;;;;3.33;1.30;;;;;;;-145.18;100.00;60484.78;5025723;28;20026;-69
2022/04/19 09:21:55;;;;;;;3.47;1.52;;;;;;;-145.18;100.00;60484.78;5030084;28;20038;-69
2022/04/19 09:24:22;;;;;;;4.03;1.50;;;;;;;-145.18;100.00;60484.78;5027318;28;20033;-70
2022/04/19 09:26:48;;;;;;;3.85;1.67;;;;;;;-145.18;100.00;60484.78;5028996;28;20033;-69
2022/04/19 09:29:25;;;;;;;3.65;1.23;;;;;;;-145.18;100.00;60484.78;5029567;28;20018;-69
2022/04/19 09:31:57;;;;;;;7.72;1.70;;;;;;;-145.18;100.00;60484.78;5029572;28;20029;-69
2022/04/19 09:34:29;;;;;;;3.60;1.60;;;;;;;-145.18;100.00;60484.78;5030075;28;20493;-69
2022/04/19 09:37:10;;;;;;;4.25;1.50;;;;;;;-145.18;100.00;60484.78;5032417;28;20531;-69
2022/04/19 09:39:38;;;;;;;2.50;1.30;;;;;;;-145.18;100.00;60484.78;5024378;28;20393;-69
2022/04/19 09:42:08;;;;;;;3.28;1.63;;;;;;;-145.18;100.00;60484.78;5039922;28;20016;-69
2022/04/19 09:44:41;;;;;;;4.43;1.60;;;;;;;-145.18;100.00;60484.78;5037599;28;20029;-69
2022/04/19 09:47:12;;;;;;;4.22;1.30;;;;;;;-145.18;100.00;60484.78;5030225;28;20071;-69
2022/04/19 09:49:44;;;;;;;2.80;1.50;;;;;;;-145.18;100.00;60484.78;5033210;28;20489;-69
2022/04/19 09:52:14;;;;;;;3.33;1.45;;;;;;;-145.18;100.00;60484.78;5033956;28;20029;-69
2022/04/19 09:54:43;;;;;;;4.20;1.60;;;;;;;-145.18;100.00;60484.78;5032811;28;20140;-69
2022/04/19 09:57:10;;;;;;;4.20;1.40;;;;;;;-145.18;100.00;60484.78;5030385;28;20053;-69
2022/04/19 09:59:43;;;;;;;5.40;1.58;;;;;;;-145.18;100.00;60484.78;5024994;28;20062;-69
2022/04/19 10:10:24;;;;;;;3.35;1.30;;;;;;;-145.18;100.00;60484.78;5026224;28;20087;-69
2022/04/19 10:12:53;;;;;;;4.13;1.70;;;;;;;-145.18;100.00;60484.78;5013211;28;20022;-69
2022/04/19 10:15:19;;;;;;;2.40;1.20;;;;;;;-145.18;100.00;60484.78;5005272;28;20034;-69
2022/04/19 10:17:46;;;;;;;2.70;1.40;;;;;;;-145.18;100.00;60484.78;5032989;28;20386;-69
2022/04/19 10:20:13;;;;;;;4.25;1.27;;;;;;;-145.18;100.00;60484.78;5029869;28;20072;-69
2022/04/19 10:22:46;;;;;;;3.20;1.48;;;;;;;-145.18;100.00;60484.78;5032873;28;20112;-69
2022/04/19 10:25:13;;;;;;;3.05;1.52;;;;;;;-145.18;100.00;60484.78;5027893;28;20366;-69
2022/04/19 10:27:39;;;;;;;3.97;1.50;;;;;;;-145.18;100.00;60484.78;5027564;28;20029;-69
2022/04/19 10:30:05;;;;;;;6.53;1.83;;;;;;;-145.18;100.00;60484.78;5031847;28;20028;-69
2022/04/19 10:32:33;;;;;;;3.42;1.50;;;;;;;-145.18;100.00;60484.78;5034446;28;20036;-69
2022/04/19 10:35:03;;;;;;;3.95;1.63;;;;;;;-145.18;100.00;60484.78;5028075;28;20033;-69
2022/04/19 10:37:29;;;;;;;3.65;1.60;;;;;;;-145.18;100.00;60484.78;5023016;28;20121;-69
2022/04/19 10:39:57;;;;;;;2.95;1.30;;;;;;;-145.18;100.00;60484.78;5020845;28;20538;-69
2022/04/19 10:42:34;;;;;;;3.22;1.17;;;;;;;-145.18;100.00;60484.78;5030355;28;20040;-69
2022/04/19 10:45:15;;;;;;;4.20;1.40;;;;;;;-145.18;100.00;60484.78;5033852;28;20025;-69
2022/04/19 10:48:10;;;;;;;4.45;1.80;;;;;;;-145.18;100.00;60484.78;5030968;28;20052;-70
2022/04/19 10:50:39;;;;;;;4.00;1.38;;;;;;;-145.18;100.00;60484.78;4996235;28;20075;-69
2022/04/19 10:53:12;;;;;;;4.18;1.42;;;;;;;-145.18;100.00;60484.78;5029063;28;20473;-69
2022/04/19 10:56:01;;;;;;;4.95;1.45;;;;;;;-145.18;100.00;60484.78;5027426;28;20033;-69
2022/04/19 10:58:41;;;;;;;4.30;1.65;;;;;;;-145.18;100.00;60484.78;5028977;28;20032;-69
2022/04/19 11:01:28;;;;;;;4.18;1.92;;;;;;;-145.18;100.00;60484.78;5030002;28;20056;-70
2022/04/19 11:03:56;;;;;;;3.97;1.83;;;;;;;-145.18;100.00;60484.78;5027781;28;20037;-69
2022/04/19 11:06:31;;;;;;;3.08;1.52;;;;;;;-145.18;100.00;60484.78;5010678;28;20083;-69
2022/04/19 11:09:29;;;;;;;4.97;1.30;;;;;;;-145.18;100.00;60484.78;5025598;28;20049;-69
2022/04/19 11:12:06;;;;;;;5.57;1.75;;;;;;;-145.18;100.00;60484.78;4984408;28;20041;-69
2022/04/19 11:14:37;;;;;;;4.70;1.60;;;;;;;-145.18;100.00;60484.78;5032010;28;20048;-70
2022/04/19 11:17:39;;;;;;;2.63;1.43;;;;;;;-145.18;100.00;60484.78;5034646;28;20104;-69
2022/04/19 11:20:10;;;;;;;4.95;1.48;;;;;;;-145.18;100.00;60484.78;5007719;28;20054;-70
2022/04/19 11:22:47;;;;;;;2.08;0.95;;;;;;;-145.18;100.00;60484.78;5030844;28;20043;-69
2022/04/19 11:25:13;;;;;;;4.28;1.08;;;;;;;-145.18;100.00;60484.78;5019189;28;20390;-69
2022/04/19 11:28:01;;;;;;;3.30;1.30;;;;;;;-145.18;100.00;60484.78;5026385;28;20029;-69
2022/04/19 11:30:27;;;;;;;3.35;1.40;;;;;;;-145.18;100.00;60484.78;4997772;28;20557;-69
2022/04/19 11:32:55;;;;;;;3.13;1.13;;;;;;;-145.18;100.00;60484.78;5025003;28;20128;-69
2022/04/19 11:35:20;;;;;;;3.40;1.50;;;;;;;-145.18;100.00;60484.78;5015901;28;20029;-69
2022/04/19 11:37:46;;;;;;;4.53;1.30;;;;;;;-145.18;100.00;60484.78;5019721;28;20059;-69
2022/04/19 11:48:38;;;;;;;3.35;1.25;;;;;;;-145.18;100.00;60484.78;5035772;28;20051;-69
2022/04/19 11:51:11;;;;;;;2.47;1.08;;;;;;;-145.18;100.00;60484.78;5024067;28;20112;-69
2022/04/19 11:53:36;;;;;;;3.08;1.10;;;;;;;-145.18;100.00;60484.78;5033386;28;20032;-69